createdAt,value
2018-05-25T00:00:47.366Z,101383.59
2018-05-25T00:03:15.497Z,101379.61
2018-05-25T00:05:43.633Z,101378.89
2018-05-25T00:08:11.780Z,101382.72
2018-05-25T00:10:39.922Z,101384.45
2018-05-25T00:13:08.034Z,101383.44
2018-05-25T00:15:39.649Z,101391.08
2018-05-25T00:18:07.771Z,101384.72
2018-05-25T00:20:35.916Z,101374.12
2018-05-25T00:23:04.079Z,101382.41
2018-05-25T00:25:32.187Z,101379.86
2018-05-25T00:28:00.323Z,101378.16
2018-05-25T00:30:28.470Z,101381.92
2018-05-25T00:32:56.575Z,101381.25
2018-05-25T00:35:24.720Z,101380.13
2018-05-25T00:37:52.888Z,101383.48
2018-05-25T00:40:21.290Z,101391.41
2018-05-25T00:42:49.432Z,101385.02
2018-05-25T00:45:17.557Z,101384.12
2018-05-25T00:47:45.684Z,101388.53
2018-05-25T00:50:13.808Z,101385.47
2018-05-25T00:52:42.442Z,101377.62
2018-05-25T00:55:22.386Z,101383.46
2018-05-25T00:57:50.513Z,101384.72
2018-05-25T01:00:18.667Z,101382.54
2018-05-25T01:02:46.792Z,101379.39
2018-05-25T01:05:14.933Z,101377.05
2018-05-25T01:07:43.043Z,101378.00
2018-05-25T01:10:11.191Z,101377.56
2018-05-25T01:12:39.325Z,101382.20
2018-05-25T01:15:07.439Z,101379.34
2018-05-25T01:17:35.607Z,101373.18
2018-05-25T01:20:03.724Z,101375.11
2018-05-25T01:22:31.912Z,101366.93
2018-05-25T01:25:00.059Z,101367.50
2018-05-25T01:27:28.187Z,101370.47
2018-05-25T01:29:56.337Z,101370.99
2018-05-25T01:32:24.462Z,101361.63
2018-05-25T01:34:52.581Z,101366.31
2018-05-25T01:37:20.721Z,101365.36
2018-05-25T01:39:48.846Z,101360.20
2018-05-25T01:42:16.985Z,101355.17
2018-05-25T01:44:45.108Z,101359.00
2018-05-25T01:47:13.241Z,101356.45
2018-05-25T01:49:41.391Z,101355.83
2018-05-25T01:52:09.498Z,101358.70
2018-05-25T01:54:37.645Z,101358.05
2018-05-25T01:57:05.804Z,101356.94
2018-05-25T01:59:33.930Z,101352.60
2018-05-25T02:02:02.073Z,101354.97
2018-05-25T02:04:30.215Z,101352.84
2018-05-25T02:06:58.354Z,101347.77
2018-05-25T02:09:26.484Z,101347.20
2018-05-25T02:11:54.595Z,101345.45
2018-05-25T02:14:22.737Z,101346.31
2018-05-25T02:16:50.866Z,101339.94
2018-05-25T02:19:19.385Z,101344.98
2018-05-25T02:21:47.623Z,101342.55
2018-05-25T02:24:15.750Z,101344.03
2018-05-25T02:26:43.885Z,101347.56
2018-05-25T02:29:12.032Z,101344.58
2018-05-25T02:31:40.169Z,101339.53
2018-05-25T02:34:08.301Z,101339.95
2018-05-25T02:36:36.425Z,101336.23
2018-05-25T02:39:04.572Z,101338.40
2018-05-25T02:41:32.704Z,101337.74
2018-05-25T02:44:00.857Z,101336.49
2018-05-25T02:46:28.981Z,101343.28
2018-05-25T02:48:57.127Z,101339.00
2018-05-25T02:51:25.261Z,101338.69
2018-05-25T02:53:53.375Z,101343.56
2018-05-25T02:56:21.530Z,101339.88
2018-05-25T02:58:49.666Z,101342.84
2018-05-25T03:01:17.789Z,101346.17
2018-05-25T03:03:45.912Z,101348.11
2018-05-25T03:06:14.033Z,101348.86
2018-05-25T03:08:42.181Z,101354.92
2018-05-25T03:11:10.313Z,101349.86
2018-05-25T03:13:38.451Z,101356.91
2018-05-25T03:16:06.598Z,101360.70
2018-05-25T03:18:35.070Z,101359.71
2018-05-25T03:21:03.653Z,101360.11
2018-05-25T03:23:31.822Z,101358.59
2018-05-25T03:25:59.945Z,101363.35
2018-05-25T03:28:28.085Z,101359.09
2018-05-25T03:30:56.214Z,101356.59
2018-05-25T03:33:24.362Z,101358.27
2018-05-25T03:35:52.520Z,101358.52
2018-05-25T03:38:20.648Z,101358.70
2018-05-25T03:40:48.782Z,101361.16
2018-05-25T03:43:16.897Z,101359.12
2018-05-25T03:45:45.048Z,101367.28
2018-05-25T03:48:13.177Z,101365.41
2018-05-25T03:50:41.306Z,101365.64
2018-05-25T03:53:09.443Z,101371.44
2018-05-25T03:55:37.574Z,101369.41
2018-05-25T03:58:05.735Z,101371.39
2018-05-25T04:00:45.773Z,101375.89
2018-05-25T04:03:15.072Z,101377.80
2018-05-25T04:05:43.209Z,101374.53
2018-05-25T04:08:11.351Z,101375.17
2018-05-25T04:10:39.495Z,101379.69
2018-05-25T04:13:07.610Z,101372.03
2018-05-25T04:15:35.894Z,101375.70
2018-05-25T04:18:04.066Z,101374.79
2018-05-25T04:20:32.250Z,101382.98
2018-05-25T04:23:00.403Z,101383.28
2018-05-25T04:25:28.525Z,101383.86
2018-05-25T04:27:56.671Z,101385.64
2018-05-25T04:30:24.831Z,101390.25
2018-05-25T04:32:52.977Z,101385.64
2018-05-25T04:35:21.093Z,101391.16
2018-05-25T04:37:49.229Z,101391.03
2018-05-25T04:40:17.369Z,101387.95
2018-05-25T04:42:45.495Z,101389.12
2018-05-25T04:45:13.690Z,101386.27
2018-05-25T04:47:41.835Z,101391.91
2018-05-25T04:50:09.957Z,101397.89
2018-05-25T04:52:38.074Z,101390.54
2018-05-25T04:55:06.227Z,101391.38
2018-05-25T04:57:34.390Z,101390.77
2018-05-25T05:00:02.516Z,101398.77
2018-05-25T05:02:30.639Z,101402.52
2018-05-25T05:04:58.816Z,101406.37
2018-05-25T05:07:26.901Z,101402.30
2018-05-25T05:09:55.023Z,101402.20
2018-05-25T05:12:23.154Z,101403.81
2018-05-25T05:14:51.351Z,101403.77
2018-05-25T05:17:19.428Z,101404.84
2018-05-25T05:19:47.556Z,101409.34
2018-05-25T05:22:15.703Z,101407.86
2018-05-25T05:24:43.824Z,101412.08
2018-05-25T05:27:12.136Z,101412.52
2018-05-25T05:29:40.261Z,101415.45
2018-05-25T05:32:08.382Z,101411.77
2018-05-25T05:34:36.518Z,101406.61
2018-05-25T05:37:04.645Z,101408.94
2018-05-25T05:39:32.778Z,101406.72
2018-05-25T05:42:00.909Z,101412.34
2018-05-25T05:44:29.052Z,101405.22
2018-05-25T05:46:57.180Z,101403.52
2018-05-25T05:49:25.302Z,101403.08
2018-05-25T05:51:53.440Z,101399.25
2018-05-25T05:54:21.562Z,101401.80
2018-05-25T05:56:49.693Z,101402.80
2018-05-25T05:59:17.842Z,101401.12
2018-05-25T06:01:45.996Z,101406.04
2018-05-25T06:04:14.140Z,101402.64
2018-05-25T06:06:42.243Z,101399.20
2018-05-25T06:09:10.391Z,101405.39
2018-05-25T06:11:38.510Z,101402.59
2018-05-25T06:14:06.651Z,101415.14
2018-05-25T06:16:34.779Z,101407.53
2018-05-25T06:19:02.925Z,101407.80
2018-05-25T06:21:31.015Z,101412.05
2018-05-25T06:23:59.153Z,101414.33
2018-05-25T06:26:27.271Z,101418.19
2018-05-25T06:28:55.438Z,101421.38
2018-05-25T06:31:23.553Z,101420.85
2018-05-25T06:33:51.682Z,101426.52
2018-05-25T06:36:19.824Z,101417.70
2018-05-25T06:38:47.927Z,101423.70
2018-05-25T06:41:16.112Z,101426.84
2018-05-25T06:43:44.247Z,101423.70
2018-05-25T06:46:12.354Z,101426.90
2018-05-25T06:48:40.493Z,101429.94
2018-05-25T06:51:08.635Z,101433.95
2018-05-25T06:53:36.763Z,101429.91
2018-05-25T06:56:04.897Z,101442.91
2018-05-25T06:58:33.044Z,101443.07
2018-05-25T07:01:01.181Z,101444.45
2018-05-25T07:03:29.300Z,101447.17
2018-05-25T07:05:57.669Z,101439.52
2018-05-25T07:08:25.801Z,101432.72
2018-05-25T07:10:53.920Z,101437.56
2018-05-25T07:13:25.543Z,101432.35
2018-05-25T07:15:53.661Z,101434.66
2018-05-25T07:18:21.787Z,101441.36
2018-05-25T07:20:49.909Z,101441.11
2018-05-25T07:23:18.091Z,101431.04
2018-05-25T07:25:46.277Z,101441.02
2018-05-25T07:28:14.416Z,101436.77
2018-05-25T07:30:42.552Z,101438.27
2018-05-25T07:33:10.666Z,101439.12
2018-05-25T07:35:38.891Z,101439.53
2018-05-25T07:38:06.990Z,101450.77
2018-05-25T07:40:35.134Z,101451.45
2018-05-25T07:43:03.300Z,101454.06
2018-05-25T07:45:31.425Z,101451.48
2018-05-25T07:47:59.542Z,101450.64
2018-05-25T07:50:30.153Z,101455.83
2018-05-25T07:52:58.296Z,101455.71
2018-05-25T07:55:26.435Z,101459.93
2018-05-25T07:57:54.559Z,101457.08
2018-05-25T08:00:22.695Z,101458.55
2018-05-25T08:02:50.829Z,101461.98
2018-05-25T08:05:18.953Z,101461.04
2018-05-25T08:07:47.108Z,101462.56
2018-05-25T08:10:15.241Z,101467.06
2018-05-25T08:12:43.373Z,101470.27
2018-05-25T08:15:11.505Z,101457.56
2018-05-25T08:17:39.633Z,101462.23
2018-05-25T08:20:07.771Z,101463.61
2018-05-25T08:22:35.893Z,101465.67
2018-05-25T08:25:04.051Z,101468.80
2018-05-25T08:27:32.173Z,101464.69
2018-05-25T08:30:00.305Z,101473.74
2018-05-25T08:32:30.315Z,101469.78
2018-05-25T08:34:58.457Z,101467.86
2018-05-25T08:37:26.728Z,101463.05
2018-05-25T08:39:54.865Z,101468.95
2018-05-25T08:42:23.001Z,101472.10
2018-05-25T08:44:51.112Z,101474.70
2018-05-25T08:47:19.364Z,101471.53
2018-05-25T08:49:47.500Z,101471.81
2018-05-25T08:52:15.661Z,101472.77
2018-05-25T08:54:43.797Z,101474.41
2018-05-25T08:57:11.953Z,101479.08
2018-05-25T08:59:40.070Z,101476.63
2018-05-25T09:02:08.205Z,101470.73
2018-05-25T09:04:36.350Z,101475.64
2018-05-25T09:07:04.507Z,101469.78
2018-05-25T09:09:32.644Z,101474.41
2018-05-25T09:12:00.762Z,101475.36
2018-05-25T09:14:28.889Z,101474.13
2018-05-25T09:16:57.051Z,101471.01
2018-05-25T09:19:25.167Z,101467.71
2018-05-25T09:21:53.343Z,101468.41
2018-05-25T09:24:21.430Z,101470.19
2018-05-25T09:26:49.575Z,101471.29
2018-05-25T09:29:17.705Z,101468.25
2018-05-25T09:31:45.853Z,101477.13
2018-05-25T09:34:13.988Z,101469.62
2018-05-25T09:36:42.144Z,101468.25
2018-05-25T09:39:10.299Z,101468.75
2018-05-25T09:41:38.440Z,101476.95
2018-05-25T09:44:06.587Z,101468.64
2018-05-25T09:46:34.714Z,101473.30
2018-05-25T09:49:02.856Z,101470.53
2018-05-25T09:51:30.998Z,101474.89
2018-05-25T09:53:59.144Z,101472.81
2018-05-25T09:56:27.256Z,101468.72
2018-05-25T09:58:55.440Z,101465.95
2018-05-25T10:01:23.550Z,101467.33
2018-05-25T10:03:51.692Z,101467.20
2018-05-25T10:06:19.832Z,101473.05
2018-05-25T10:08:47.972Z,101465.67
2018-05-25T10:11:16.182Z,101463.59
2018-05-25T10:13:44.310Z,101464.28
2018-05-25T10:16:12.456Z,101456.69
2018-05-25T10:18:40.570Z,101464.34
2018-05-25T10:21:09.613Z,101464.97
2018-05-25T10:23:37.759Z,101459.37
2018-05-25T10:26:05.896Z,101453.09
2018-05-25T10:28:34.054Z,101448.92
2018-05-25T10:31:02.201Z,101445.99
2018-05-25T10:33:30.316Z,101446.17
2018-05-25T10:35:58.462Z,101440.88
2018-05-25T10:38:26.584Z,101434.48
2018-05-25T10:40:54.720Z,101439.70
2018-05-25T10:43:22.888Z,101444.77
2018-05-25T10:45:51.047Z,101432.36
2018-05-25T10:48:19.151Z,101437.16
2018-05-25T10:50:47.314Z,101436.23
2018-05-25T10:53:15.438Z,101441.78
2018-05-25T10:55:43.561Z,101443.19
2018-05-25T10:58:11.706Z,101442.63
2018-05-25T11:00:39.830Z,101448.11
2018-05-25T11:03:07.957Z,101438.23
2018-05-25T11:05:36.173Z,101443.23
2018-05-25T11:08:04.283Z,101443.56
2018-05-25T11:10:32.406Z,101443.66
2018-05-25T11:13:00.551Z,101438.67
2018-05-25T11:15:29.620Z,101439.42
2018-05-25T11:17:57.754Z,101431.41
2018-05-25T11:20:25.863Z,101430.33
2018-05-25T11:22:53.998Z,101430.11
2018-05-25T11:25:22.137Z,101430.13
2018-05-25T11:27:50.280Z,101431.73
2018-05-25T11:30:18.428Z,101433.69
2018-05-25T11:32:46.578Z,101425.16
2018-05-25T11:35:14.725Z,101422.08
2018-05-25T11:37:42.876Z,101421.92
2018-05-25T11:40:11.012Z,101424.00
2018-05-25T11:42:39.156Z,101422.62
2018-05-25T11:45:07.294Z,101420.44
2018-05-25T11:47:35.415Z,101420.64
2018-05-25T11:50:03.561Z,101416.55
2018-05-25T11:52:32.283Z,101414.58
2018-05-25T11:55:00.409Z,101407.29
2018-05-25T11:57:28.535Z,101408.78
2018-05-25T11:59:56.699Z,101407.23
2018-05-25T12:02:24.821Z,101407.77
2018-05-25T12:04:52.971Z,101404.13
2018-05-25T12:07:21.102Z,101406.25
2018-05-25T12:09:49.248Z,101410.93
2018-05-25T12:12:17.380Z,101399.58
2018-05-25T12:14:45.509Z,101398.63
2018-05-25T12:17:13.670Z,101405.50
2018-05-25T12:19:41.792Z,101403.81
2018-05-25T12:22:09.911Z,101400.60
2018-05-25T12:24:38.072Z,101400.06
2018-05-25T12:27:06.188Z,101403.08
2018-05-25T12:29:34.323Z,101407.22
2018-05-25T12:32:02.478Z,101397.62
2018-05-25T12:34:30.606Z,101402.63
2018-05-25T12:36:58.711Z,101400.53
2018-05-25T12:39:26.837Z,101403.25
2018-05-25T12:41:54.984Z,101400.64
2018-05-25T12:44:23.136Z,101412.69
2018-05-25T12:46:51.305Z,101412.61
2018-05-25T12:49:19.470Z,101409.51
2018-05-25T12:51:47.593Z,101408.05
2018-05-25T12:54:15.753Z,101403.92
2018-05-25T12:56:43.926Z,101399.34
2018-05-25T12:59:12.024Z,101403.52
2018-05-25T13:01:40.154Z,101408.09
2018-05-25T13:04:08.274Z,101404.11
2018-05-25T13:06:36.394Z,101404.68
2018-05-25T13:09:04.551Z,101407.95
2018-05-25T13:11:32.693Z,101408.36
2018-05-25T13:14:00.848Z,101407.48
2018-05-25T13:16:28.944Z,101404.88
2018-05-25T13:18:57.112Z,101413.85
2018-05-25T13:21:25.233Z,101406.39
2018-05-25T13:23:53.346Z,101404.30
2018-05-25T13:26:24.818Z,101403.51
2018-05-25T13:28:52.953Z,101410.55
2018-05-25T13:31:21.054Z,101414.75
2018-05-25T13:33:49.182Z,101407.77
2018-05-25T13:36:17.336Z,101406.63
2018-05-25T13:38:45.496Z,101406.27
2018-05-25T13:41:13.647Z,101404.56
2018-05-25T13:43:41.796Z,101399.69
2018-05-25T13:46:09.917Z,101399.57
2018-05-25T13:48:38.063Z,101402.19
2018-05-25T13:51:06.176Z,101407.55
2018-05-25T13:53:34.283Z,101402.28
2018-05-25T13:56:02.413Z,101404.47
2018-05-25T13:58:30.537Z,101404.01
2018-05-25T14:00:58.659Z,101407.95
2018-05-25T14:03:26.771Z,101402.78
2018-05-25T14:05:54.910Z,101397.66
2018-05-25T14:08:23.003Z,101396.24
2018-05-25T14:10:51.159Z,101393.37
2018-05-25T14:13:19.258Z,101392.95
2018-05-25T14:15:47.408Z,101394.87
2018-05-25T14:18:15.546Z,101400.84
2018-05-25T14:20:43.685Z,101404.59
2018-05-25T14:23:11.886Z,101405.30
2018-05-25T14:25:40.026Z,101403.50
2018-05-25T14:28:08.142Z,101403.26
2018-05-25T14:30:36.269Z,101395.77
2018-05-25T14:33:04.405Z,101391.48
2018-05-25T14:35:32.552Z,101400.81
2018-05-25T14:38:00.698Z,101402.42
2018-05-25T14:40:28.810Z,101406.18
2018-05-25T14:42:56.991Z,101404.70
2018-05-25T14:45:28.365Z,101411.58
2018-05-25T14:47:56.493Z,101406.19
2018-05-25T14:50:24.635Z,101400.23
2018-05-25T14:52:52.760Z,101395.75
2018-05-25T14:55:20.896Z,101401.66
2018-05-25T14:57:49.115Z,101397.05
2018-05-25T15:00:17.237Z,101392.80
2018-05-25T15:02:45.369Z,101398.48
2018-05-25T15:05:13.546Z,101402.52
2018-05-25T15:07:41.689Z,101401.88
2018-05-25T15:10:09.840Z,101406.57
2018-05-25T15:12:37.993Z,101408.70
2018-05-25T15:15:06.129Z,101403.29
2018-05-25T15:17:34.273Z,101407.20
2018-05-25T15:20:02.378Z,101408.18
2018-05-25T15:22:30.505Z,101402.98
2018-05-25T15:24:58.633Z,101401.16
2018-05-25T15:27:26.761Z,101405.73
2018-05-25T15:29:54.901Z,101407.32
2018-05-25T15:32:23.049Z,101402.87
2018-05-25T15:34:51.179Z,101397.31
2018-05-25T15:37:19.352Z,101405.67
2018-05-25T15:39:47.488Z,101399.91
2018-05-25T15:42:15.608Z,101395.97
2018-05-25T15:44:43.726Z,101395.70
2018-05-25T15:47:11.862Z,101391.58
2018-05-25T15:49:40.006Z,101384.86
2018-05-25T15:52:08.119Z,101388.47
2018-05-25T15:54:36.264Z,101390.59
2018-05-25T15:57:04.404Z,101390.47
2018-05-25T15:59:32.544Z,101379.23
2018-05-25T16:02:01.119Z,101376.81
2018-05-25T16:04:29.255Z,101371.50
2018-05-25T16:06:57.399Z,101368.33
2018-05-25T16:09:25.531Z,101370.81
2018-05-25T16:11:53.661Z,101370.91
2018-05-25T16:14:21.869Z,101372.25
2018-05-25T16:16:49.961Z,101370.13
2018-05-25T16:19:18.096Z,101363.65
2018-05-25T16:21:46.223Z,101365.63
2018-05-25T16:24:14.388Z,101360.23
2018-05-25T16:26:42.505Z,101353.19
2018-05-25T16:29:10.641Z,101352.27
2018-05-25T16:31:38.781Z,101350.70
2018-05-25T16:34:06.930Z,101347.07
2018-05-25T16:36:35.007Z,101344.28
2018-05-25T16:39:03.144Z,101343.36
2018-05-25T16:41:31.274Z,101345.20
2018-05-25T16:43:59.392Z,101348.33
2018-05-25T16:46:27.549Z,101343.28
2018-05-25T16:48:55.699Z,101344.55
2018-05-25T16:51:23.831Z,101343.90
2018-05-25T16:53:51.994Z,101347.07
2018-05-25T16:56:20.104Z,101345.77
2018-05-25T16:58:48.222Z,101347.80
2018-05-25T17:01:16.370Z,101348.91
2018-05-25T17:03:44.495Z,101349.59
2018-05-25T17:06:12.622Z,101340.58
2018-05-25T17:08:40.749Z,101339.47
2018-05-25T17:11:08.894Z,101342.14
2018-05-25T17:13:37.023Z,101341.23
2018-05-25T17:16:05.169Z,101343.48
2018-05-25T17:18:33.299Z,101345.05
2018-05-25T17:21:01.475Z,101342.64
2018-05-25T17:23:29.577Z,101341.84
2018-05-25T17:25:57.718Z,101339.58
2018-05-25T17:28:29.364Z,101339.04
2018-05-25T17:30:57.529Z,101345.55
2018-05-25T17:33:25.684Z,101338.36
2018-05-25T17:35:53.806Z,101345.40
2018-05-25T17:38:25.671Z,101346.45
2018-05-25T17:40:53.811Z,101348.85
2018-05-25T17:43:28.335Z,101352.35
2018-05-25T17:45:56.436Z,101353.31
2018-05-25T17:48:24.538Z,101355.91
2018-05-25T17:50:52.689Z,101356.20
2018-05-25T17:53:20.805Z,101355.34
2018-05-25T17:55:48.944Z,101358.84
2018-05-25T17:58:17.094Z,101363.27
2018-05-25T18:00:45.223Z,101363.20
2018-05-25T18:03:13.418Z,101368.87
2018-05-25T18:05:41.501Z,101366.06
2018-05-25T18:08:09.610Z,101376.53
2018-05-25T18:10:37.718Z,101375.22
2018-05-25T18:13:05.871Z,101375.00
2018-05-25T18:15:37.360Z,101375.98
2018-05-25T18:18:05.498Z,101376.16
2018-05-25T18:20:33.618Z,101377.44
2018-05-25T18:23:01.850Z,101375.00
2018-05-25T18:25:29.947Z,101383.27
2018-05-25T18:27:58.091Z,101380.15
2018-05-25T18:30:26.187Z,101387.72
2018-05-25T18:32:54.294Z,101382.55
2018-05-25T18:35:22.431Z,101386.01
2018-05-25T18:37:50.563Z,101394.50
2018-05-25T18:40:18.705Z,101392.49
2018-05-25T18:42:46.875Z,101393.31
2018-05-25T18:45:15.042Z,101386.78
2018-05-25T18:47:43.162Z,101385.87
2018-05-25T18:50:11.280Z,101380.79
2018-05-25T18:52:39.379Z,101387.41
2018-05-25T18:55:07.482Z,101392.75
2018-05-25T18:57:35.613Z,101392.92
2018-05-25T19:00:03.735Z,101395.55
2018-05-25T19:02:32.166Z,101401.59
2018-05-25T19:05:00.309Z,101398.73
2018-05-25T19:07:28.447Z,101397.30
2018-05-25T19:09:56.547Z,101397.03
2018-05-25T19:12:24.717Z,101398.42
2018-05-25T19:14:52.771Z,101399.53
2018-05-25T19:17:20.912Z,101396.69
2018-05-25T19:19:49.085Z,101405.07
2018-05-25T19:22:17.184Z,101407.27
2018-05-25T19:24:45.320Z,101410.17
2018-05-25T19:27:13.454Z,101405.81
2018-05-25T19:29:41.567Z,101414.31
2018-05-25T19:32:09.674Z,101421.03
2018-05-25T19:34:37.809Z,101412.84
2018-05-25T19:37:05.912Z,101424.38
2018-05-25T19:39:34.025Z,101425.31
2018-05-25T19:42:02.150Z,101427.92
2018-05-25T19:44:30.298Z,101433.56
2018-05-25T19:47:02.036Z,101435.78
2018-05-25T19:49:30.169Z,101443.03
2018-05-25T19:51:58.293Z,101442.64
2018-05-25T19:54:26.405Z,101437.55
2018-05-25T19:56:54.536Z,101452.08
2018-05-25T19:59:22.636Z,101442.08
2018-05-25T20:01:50.734Z,101451.97
2018-05-25T20:04:18.878Z,101457.32
2018-05-25T20:06:47.011Z,101457.17
2018-05-25T20:09:15.132Z,101457.70
2018-05-25T20:11:43.257Z,101455.81
2018-05-25T20:14:11.402Z,101465.55
2018-05-25T20:16:39.518Z,101452.25
2018-05-25T20:19:07.641Z,101460.22
2018-05-25T20:21:35.886Z,101450.50
2018-05-25T20:24:04.010Z,101457.75
2018-05-25T20:26:32.138Z,101451.20
2018-05-25T20:29:00.250Z,101444.78
2018-05-25T20:31:31.558Z,101445.88
2018-05-25T20:33:59.711Z,101440.97
2018-05-25T20:36:27.846Z,101441.37
2018-05-25T20:38:55.956Z,101439.89
2018-05-25T20:41:24.104Z,101443.73
2018-05-25T20:43:52.224Z,101439.07
2018-05-25T20:46:20.348Z,101436.20
2018-05-25T20:48:48.484Z,101440.45
2018-05-25T20:51:16.620Z,101434.84
2018-05-25T20:53:44.742Z,101436.35
2018-05-25T20:56:12.891Z,101440.19
2018-05-25T20:58:41.018Z,101442.26
2018-05-25T21:01:09.183Z,101442.65
2018-05-25T21:03:37.495Z,101437.88
2018-05-25T21:06:05.621Z,101441.28
2018-05-25T21:08:33.737Z,101442.13
2018-05-25T21:11:01.889Z,101441.19
2018-05-25T21:13:29.997Z,101444.01
2018-05-25T21:15:58.117Z,101451.28
2018-05-25T21:18:26.413Z,101452.65
2018-05-25T21:20:54.532Z,101456.23
2018-05-25T21:23:22.675Z,101450.48
2018-05-25T21:25:50.806Z,101450.20
2018-05-25T21:28:19.107Z,101457.47
2018-05-25T21:30:47.225Z,101457.19
2018-05-25T21:33:15.357Z,101455.81
2018-05-25T21:35:43.477Z,101459.78
2018-05-25T21:38:11.616Z,101463.89
2018-05-25T21:40:39.743Z,101462.10
2018-05-25T21:43:07.851Z,101459.50
2018-05-25T21:45:35.985Z,101461.96
2018-05-25T21:48:04.125Z,101459.50
2018-05-25T21:50:32.266Z,101463.47
2018-05-25T21:53:00.374Z,101465.12
2018-05-25T21:55:28.527Z,101465.68
2018-05-25T21:58:00.350Z,101463.33
2018-05-25T22:00:30.162Z,101470.03
2018-05-25T22:02:58.315Z,101468.80
2018-05-25T22:05:26.454Z,101464.70
2018-05-25T22:07:54.786Z,101469.08
2018-05-25T22:10:22.895Z,101471.01
2018-05-25T22:12:51.011Z,101470.86
2018-05-25T22:15:19.161Z,101470.72
2018-05-25T22:17:47.285Z,101474.41
2018-05-25T22:20:15.414Z,101470.02
2018-05-25T22:22:43.655Z,101476.19
2018-05-25T22:25:11.879Z,101482.75
2018-05-25T22:27:40.050Z,101477.84
2018-05-25T22:30:08.189Z,101481.94
2018-05-25T22:32:36.447Z,101480.81
2018-05-25T22:35:04.444Z,101483.69
2018-05-25T22:37:32.687Z,101483.02
2018-05-25T22:40:00.841Z,101478.20
2018-05-25T22:42:40.846Z,101479.30
2018-05-25T22:45:20.713Z,101489.00
2018-05-25T22:48:00.694Z,101487.37
2018-05-25T22:50:40.674Z,101496.25
2018-05-25T22:53:13.818Z,101502.42
2018-05-25T22:55:42.068Z,101502.76
2018-05-25T22:58:10.207Z,101498.13
2018-05-25T23:00:38.344Z,101497.57
2018-05-25T23:03:06.450Z,101506.72
2018-05-25T23:05:34.567Z,101504.68
2018-05-25T23:08:02.798Z,101505.05
2018-05-25T23:10:30.967Z,101507.69
2018-05-25T23:12:59.169Z,101502.59
2018-05-25T23:15:27.403Z,101508.77
2018-05-25T23:17:55.638Z,101502.05
2018-05-25T23:20:23.889Z,101502.69
2018-05-25T23:22:52.299Z,101501.04
2018-05-25T23:25:20.406Z,101499.66
2018-05-25T23:27:48.546Z,101508.42
2018-05-25T23:30:16.703Z,101503.34
2018-05-25T23:32:44.848Z,101504.97
2018-05-25T23:35:12.969Z,101493.66
2018-05-25T23:37:41.127Z,101490.50
2018-05-25T23:40:09.231Z,101498.13
2018-05-25T23:42:37.385Z,101493.34
2018-05-25T23:45:05.707Z,101490.47
2018-05-25T23:47:33.839Z,101490.59
2018-05-25T23:50:01.970Z,101492.89
2018-05-25T23:52:30.121Z,101497.70
2018-05-25T23:54:58.287Z,101498.91
2018-05-25T23:57:26.390Z,101498.08
2018-05-25T23:59:54.544Z,101494.95
